sensor_id;sensor_type;location;lat;lon;timestamp;P1;durP1;ratioP1;P2;durP2;ratioP2
69310;SDS011;56430;48.154;16.458;2024-03-02T00:01:41;52.20;;;22.33;;
69310;SDS011;56430;48.154;16.458;2024-03-02T00:04:08;53.28;;;22.38;;
69310;SDS011;56430;48.154;16.458;2024-03-02T00:06:37;53.97;;;22.23;;
69310;SDS011;56430;48.154;16.458;2024-03-02T00:09:04;56.53;;;24.17;;
69310;SDS011;56430;48.154;16.458;2024-03-02T00:11:34;55.47;;;22.30;;
69310;SDS011;56430;48.154;16.458;2024-03-02T00:14:01;51.77;;;22.03;;
69310;SDS011;56430;48.154;16.458;2024-03-02T00:16:31;55.10;;;22.75;;
69310;SDS011;56430;48.154;16.458;2024-03-02T00:19:01;48.95;;;21.00;;
69310;SDS011;56430;48.154;16.458;2024-03-02T00:21:29;52.90;;;21.38;;
69310;SDS011;56430;48.154;16.458;2024-03-02T00:23:58;46.85;;;21.65;;
69310;SDS011;56430;48.154;16.458;2024-03-02T00:26:25;48.37;;;21.23;;
69310;SDS011;56430;48.154;16.458;2024-03-02T00:28:53;49.78;;;22.17;;
69310;SDS011;56430;48.154;16.458;2024-03-02T00:31:22;46.88;;;21.77;;
69310;SDS011;56430;48.154;16.458;2024-03-02T00:33:50;50.25;;;21.50;;
69310;SDS011;56430;48.154;16.458;2024-03-02T00:36:21;46.58;;;20.33;;
69310;SDS011;56430;48.154;16.458;2024-03-02T00:38:50;47.47;;;21.03;;
69310;SDS011;56430;48.154;16.458;2024-03-02T00:41:21;48.15;;;22.00;;
69310;SDS011;56430;48.154;16.458;2024-03-02T00:43:51;50.33;;;20.70;;
69310;SDS011;56430;48.154;16.458;2024-03-02T00:46:23;47.42;;;20.15;;
69310;SDS011;56430;48.154;16.458;2024-03-02T00:48:52;45.08;;;19.10;;
69310;SDS011;56430;48.154;16.458;2024-03-02T00:51:21;44.70;;;19.30;;
69310;SDS011;56430;48.154;16.458;2024-03-02T00:53:48;47.10;;;19.92;;
69310;SDS011;56430;48.154;16.458;2024-03-02T00:56:16;47.58;;;19.55;;
69310;SDS011;56430;48.154;16.458;2024-03-02T00:58:44;47.38;;;20.42;;
69310;SDS011;56430;48.154;16.458;2024-03-02T01:01:11;49.67;;;20.20;;
69310;SDS011;56430;48.154;16.458;2024-03-02T01:03:39;53.70;;;22.37;;
69310;SDS011;56430;48.154;16.458;2024-03-02T01:06:07;43.28;;;19.33;;
69310;SDS011;56430;48.154;16.458;2024-03-02T01:08:34;43.80;;;18.33;;
69310;SDS011;56430;48.154;16.458;2024-03-02T01:11:01;47.58;;;19.17;;
69310;SDS011;56430;48.154;16.458;2024-03-02T01:13:29;45.70;;;20.00;;
69310;SDS011;56430;48.154;16.458;2024-03-02T01:15:57;52.33;;;20.80;;
69310;SDS011;56430;48.154;16.458;2024-03-02T01:18:25;57.25;;;22.73;;
69310;SDS011;56430;48.154;16.458;2024-03-02T01:20:52;54.88;;;21.90;;
69310;SDS011;56430;48.154;16.458;2024-03-02T01:23:21;53.88;;;23.70;;
69310;SDS011;56430;48.154;16.458;2024-03-02T01:25:50;56.90;;;23.45;;
69310;SDS011;56430;48.154;16.458;2024-03-02T01:28:17;62.13;;;23.80;;
69310;SDS011;56430;48.154;16.458;2024-03-02T01:30:46;63.92;;;24.60;;
69310;SDS011;56430;48.154;16.458;2024-03-02T01:33:14;52.90;;;22.63;;
69310;SDS011;56430;48.154;16.458;2024-03-02T01:35:42;53.58;;;20.67;;
69310;SDS011;56430;48.154;16.458;2024-03-02T01:38:09;51.60;;;22.00;;
69310;SDS011;56430;48.154;16.458;2024-03-02T01:40:36;56.57;;;22.80;;
69310;SDS011;56430;48.154;16.458;2024-03-02T01:43:13;50.10;;;21.42;;
69310;SDS011;56430;48.154;16.458;2024-03-02T01:45:40;50.80;;;21.40;;
69310;SDS011;56430;48.154;16.458;2024-03-02T01:48:07;53.00;;;21.67;;
69310;SDS011;56430;48.154;16.458;2024-03-02T01:50:36;50.78;;;19.88;;
69310;SDS011;56430;48.154;16.458;2024-03-02T01:53:03;55.00;;;20.70;;
69310;SDS011;56430;48.154;16.458;2024-03-02T01:55:31;51.30;;;20.60;;
69310;SDS011;56430;48.154;16.458;2024-03-02T01:58:00;46.25;;;21.02;;
69310;SDS011;56430;48.154;16.458;2024-03-02T02:00:27;48.50;;;20.08;;
69310;SDS011;56430;48.154;16.458;2024-03-02T02:02:55;46.45;;;19.85;;
69310;SDS011;56430;48.154;16.458;2024-03-02T02:05:23;47.20;;;18.93;;
69310;SDS011;56430;48.154;16.458;2024-03-02T02:07:51;42.92;;;19.25;;
69310;SDS011;56430;48.154;16.458;2024-03-02T02:10:18;44.42;;;19.73;;
69310;SDS011;56430;48.154;16.458;2024-03-02T02:12:46;46.08;;;19.55;;
69310;SDS011;56430;48.154;16.458;2024-03-02T02:15:23;45.47;;;18.85;;
69310;SDS011;56430;48.154;16.458;2024-03-02T02:17:53;45.20;;;18.67;;
69310;SDS011;56430;48.154;16.458;2024-03-02T02:20:20;44.17;;;18.88;;
69310;SDS011;56430;48.154;16.458;2024-03-02T02:22:56;41.92;;;18.88;;
69310;SDS011;56430;48.154;16.458;2024-03-02T02:25:24;44.30;;;18.77;;
69310;SDS011;56430;48.154;16.458;2024-03-02T02:27:51;41.90;;;17.92;;
69310;SDS011;56430;48.154;16.458;2024-03-02T02:30:19;42.20;;;17.40;;
69310;SDS011;56430;48.154;16.458;2024-03-02T02:32:47;36.53;;;16.75;;
69310;SDS011;56430;48.154;16.458;2024-03-02T02:35:14;36.60;;;16.55;;
69310;SDS011;56430;48.154;16.458;2024-03-02T02:37:41;34.25;;;16.25;;
69310;SDS011;56430;48.154;16.458;2024-03-02T02:40:11;39.50;;;16.67;;
69310;SDS011;56430;48.154;16.458;2024-03-02T02:42:39;42.33;;;18.00;;
69310;SDS011;56430;48.154;16.458;2024-03-02T02:45:06;36.17;;;16.17;;
69310;SDS011;56430;48.154;16.458;2024-03-02T02:47:33;40.03;;;15.90;;
69310;SDS011;56430;48.154;16.458;2024-03-02T02:50:02;38.60;;;17.10;;
69310;SDS011;56430;48.154;16.458;2024-03-02T02:52:32;39.95;;;17.85;;
69310;SDS011;56430;48.154;16.458;2024-03-02T02:55:02;36.80;;;17.10;;
69310;SDS011;56430;48.154;16.458;2024-03-02T02:57:32;40.55;;;16.23;;
69310;SDS011;56430;48.154;16.458;2024-03-02T03:00:01;35.55;;;17.27;;
69310;SDS011;56430;48.154;16.458;2024-03-02T03:02:36;36.67;;;15.30;;
69310;SDS011;56430;48.154;16.458;2024-03-02T03:05:04;34.45;;;15.02;;
69310;SDS011;56430;48.154;16.458;2024-03-02T03:07:32;31.03;;;14.23;;
69310;SDS011;56430;48.154;16.458;2024-03-02T03:10:00;32.63;;;14.63;;
69310;SDS011;56430;48.154;16.458;2024-03-02T03:12:28;33.67;;;15.23;;
69310;SDS011;56430;48.154;16.458;2024-03-02T03:14:58;32.10;;;14.43;;
69310;SDS011;56430;48.154;16.458;2024-03-02T03:17:25;32.33;;;14.65;;
69310;SDS011;56430;48.154;16.458;2024-03-02T03:19:52;28.53;;;13.90;;
69310;SDS011;56430;48.154;16.458;2024-03-02T03:22:20;34.35;;;13.52;;
69310;SDS011;56430;48.154;16.458;2024-03-02T03:24:47;35.55;;;13.75;;
69310;SDS011;56430;48.154;16.458;2024-03-02T03:27:14;36.17;;;13.45;;
69310;SDS011;56430;48.154;16.458;2024-03-02T03:29:41;33.42;;;13.75;;
69310;SDS011;56430;48.154;16.458;2024-03-02T03:32:10;29.03;;;14.17;;
69310;SDS011;56430;48.154;16.458;2024-03-02T03:34:37;35.95;;;14.35;;
69310;SDS011;56430;48.154;16.458;2024-03-02T03:37:04;33.13;;;14.32;;
69310;SDS011;56430;48.154;16.458;2024-03-02T03:39:31;37.35;;;14.18;;
69310;SDS011;56430;48.154;16.458;2024-03-02T03:42:01;27.98;;;13.38;;
69310;SDS011;56430;48.154;16.458;2024-03-02T03:44:28;33.53;;;13.93;;
69310;SDS011;56430;48.154;16.458;2024-03-02T03:47:04;27.55;;;13.65;;
69310;SDS011;56430;48.154;16.458;2024-03-02T03:49:33;28.67;;;13.25;;
69310;SDS011;56430;48.154;16.458;2024-03-02T03:52:00;32.22;;;14.15;;
69310;SDS011;56430;48.154;16.458;2024-03-02T03:54:27;38.13;;;15.20;;
69310;SDS011;56430;48.154;16.458;2024-03-02T03:56:54;34.30;;;14.97;;
69310;SDS011;56430;48.154;16.458;2024-03-02T03:59:21;30.63;;;13.63;;
69310;SDS011;56430;48.154;16.458;2024-03-02T04:01:49;37.35;;;13.98;;
69310;SDS011;56430;48.154;16.458;2024-03-02T04:04:16;32.05;;;14.45;;
69310;SDS011;56430;48.154;16.458;2024-03-02T04:06:45;32.42;;;14.27;;
69310;SDS011;56430;48.154;16.458;2024-03-02T04:09:12;40.33;;;15.00;;
69310;SDS011;56430;48.154;16.458;2024-03-02T04:11:39;36.22;;;14.45;;
69310;SDS011;56430;48.154;16.458;2024-03-02T04:14:06;48.97;;;16.73;;
69310;SDS011;56430;48.154;16.458;2024-03-02T04:16:33;36.08;;;15.32;;
69310;SDS011;56430;48.154;16.458;2024-03-02T04:19:00;36.00;;;13.65;;
69310;SDS011;56430;48.154;16.458;2024-03-02T04:21:28;35.03;;;14.20;;
69310;SDS011;56430;48.154;16.458;2024-03-02T04:23:56;36.42;;;14.43;;
69310;SDS011;56430;48.154;16.458;2024-03-02T04:26:24;44.97;;;14.73;;
69310;SDS011;56430;48.154;16.458;2024-03-02T04:28:52;34.08;;;14.40;;
69310;SDS011;56430;48.154;16.458;2024-03-02T04:31:19;57.40;;;15.02;;
69310;SDS011;56430;48.154;16.458;2024-03-02T04:33:46;63.50;;;14.67;;
69310;SDS011;56430;48.154;16.458;2024-03-02T04:36:13;62.88;;;16.15;;
69310;SDS011;56430;48.154;16.458;2024-03-02T04:38:40;55.72;;;15.52;;
69310;SDS011;56430;48.154;16.458;2024-03-02T04:41:09;46.70;;;15.40;;
69310;SDS011;56430;48.154;16.458;2024-03-02T04:43:36;40.05;;;14.23;;
69310;SDS011;56430;48.154;16.458;2024-03-02T04:46:03;32.37;;;13.90;;
69310;SDS011;56430;48.154;16.458;2024-03-02T04:48:31;33.50;;;14.75;;
69310;SDS011;56430;48.154;16.458;2024-03-02T04:50:58;49.03;;;15.15;;
69310;SDS011;56430;48.154;16.458;2024-03-02T04:53:25;35.03;;;14.18;;
69310;SDS011;56430;48.154;16.458;2024-03-02T04:55:52;42.05;;;14.20;;
69310;SDS011;56430;48.154;16.458;2024-03-02T04:58:54;52.57;;;14.70;;
69310;SDS011;56430;48.154;16.458;2024-03-02T05:01:22;36.58;;;14.95;;
69310;SDS011;56430;48.154;16.458;2024-03-02T05:03:49;53.78;;;16.83;;
69310;SDS011;56430;48.154;16.458;2024-03-02T05:06:16;86.35;;;17.70;;
69310;SDS011;56430;48.154;16.458;2024-03-02T05:08:43;38.67;;;14.90;;
69310;SDS011;56430;48.154;16.458;2024-03-02T05:11:12;54.87;;;16.00;;
69310;SDS011;56430;48.154;16.458;2024-03-02T05:14:10;50.92;;;15.68;;
69310;SDS011;56430;48.154;16.458;2024-03-02T05:16:37;51.63;;;15.38;;
69310;SDS011;56430;48.154;16.458;2024-03-02T05:19:04;49.95;;;15.63;;
69310;SDS011;56430;48.154;16.458;2024-03-02T05:21:32;59.70;;;17.05;;
69310;SDS011;56430;48.154;16.458;2024-03-02T05:23:59;84.90;;;17.00;;
69310;SDS011;56430;48.154;16.458;2024-03-02T05:26:26;54.30;;;14.60;;
69310;SDS011;56430;48.154;16.458;2024-03-02T05:28:53;70.20;;;17.58;;
69310;SDS011;56430;48.154;16.458;2024-03-02T05:31:22;37.75;;;13.95;;
69310;SDS011;56430;48.154;16.458;2024-03-02T05:33:49;42.42;;;15.80;;
69310;SDS011;56430;48.154;16.458;2024-03-02T05:36:18;52.40;;;17.10;;
69310;SDS011;56430;48.154;16.458;2024-03-02T05:38:46;45.45;;;16.35;;
69310;SDS011;56430;48.154;16.458;2024-03-02T05:41:13;52.17;;;16.52;;
69310;SDS011;56430;48.154;16.458;2024-03-02T05:43:40;60.15;;;17.25;;
69310;SDS011;56430;48.154;16.458;2024-03-02T05:46:07;46.13;;;15.55;;
69310;SDS011;56430;48.154;16.458;2024-03-02T05:48:36;53.47;;;16.13;;
69310;SDS011;56430;48.154;16.458;2024-03-02T05:51:03;55.83;;;16.52;;
69310;SDS011;56430;48.154;16.458;2024-03-02T05:53:30;50.08;;;16.55;;
69310;SDS011;56430;48.154;16.458;2024-03-02T05:55:57;50.08;;;15.23;;
69310;SDS011;56430;48.154;16.458;2024-03-02T05:58:24;43.17;;;15.88;;
69310;SDS011;56430;48.154;16.458;2024-03-02T06:01:03;48.97;;;15.17;;
69310;SDS011;56430;48.154;16.458;2024-03-02T06:03:31;45.17;;;15.10;;
69310;SDS011;56430;48.154;16.458;2024-03-02T06:05:59;43.90;;;16.38;;
69310;SDS011;56430;48.154;16.458;2024-03-02T06:08:26;44.72;;;15.95;;
69310;SDS011;56430;48.154;16.458;2024-03-02T06:10:53;45.80;;;16.33;;
69310;SDS011;56430;48.154;16.458;2024-03-02T06:13:22;43.70;;;15.73;;
69310;SDS011;56430;48.154;16.458;2024-03-02T06:15:49;43.33;;;17.17;;
69310;SDS011;56430;48.154;16.458;2024-03-02T06:18:16;55.90;;;18.52;;
69310;SDS011;56430;48.154;16.458;2024-03-02T06:20:43;42.30;;;16.17;;
69310;SDS011;56430;48.154;16.458;2024-03-02T06:23:11;40.85;;;16.50;;
69310;SDS011;56430;48.154;16.458;2024-03-02T06:25:38;46.40;;;16.70;;
69310;SDS011;56430;48.154;16.458;2024-03-02T06:28:06;44.95;;;16.00;;
69310;SDS011;56430;48.154;16.458;2024-03-02T06:30:33;67.68;;;16.88;;
69310;SDS011;56430;48.154;16.458;2024-03-02T06:33:00;47.40;;;17.13;;
69310;SDS011;56430;48.154;16.458;2024-03-02T06:35:27;47.20;;;17.58;;
69310;SDS011;56430;48.154;16.458;2024-03-02T06:37:54;44.53;;;17.13;;
69310;SDS011;56430;48.154;16.458;2024-03-02T06:40:22;42.20;;;16.90;;
69310;SDS011;56430;48.154;16.458;2024-03-02T06:42:49;48.65;;;17.35;;
69310;SDS011;56430;48.154;16.458;2024-03-02T06:45:17;44.17;;;17.77;;
69310;SDS011;56430;48.154;16.458;2024-03-02T06:47:44;46.97;;;17.65;;
69310;SDS011;56430;48.154;16.458;2024-03-02T06:50:11;47.63;;;16.70;;
69310;SDS011;56430;48.154;16.458;2024-03-02T06:52:38;122.75;;;21.30;;
69310;SDS011;56430;48.154;16.458;2024-03-02T06:55:05;88.60;;;19.80;;
69310;SDS011;56430;48.154;16.458;2024-03-02T06:57:34;48.85;;;17.50;;
69310;SDS011;56430;48.154;16.458;2024-03-02T07:00:05;45.10;;;17.38;;
69310;SDS011;56430;48.154;16.458;2024-03-02T07:02:34;55.43;;;16.87;;
69310;SDS011;56430;48.154;16.458;2024-03-02T07:05:01;83.85;;;19.90;;
69310;SDS011;56430;48.154;16.458;2024-03-02T07:07:29;75.63;;;18.83;;
69310;SDS011;56430;48.154;16.458;2024-03-02T07:09:57;58.97;;;17.88;;
69310;SDS011;56430;48.154;16.458;2024-03-02T07:12:24;84.25;;;21.67;;
69310;SDS011;56430;48.154;16.458;2024-03-02T07:14:53;94.33;;;21.97;;
69310;SDS011;56430;48.154;16.458;2024-03-02T07:17:50;55.78;;;18.90;;
69310;SDS011;56430;48.154;16.458;2024-03-02T07:20:17;68.10;;;16.77;;
69310;SDS011;56430;48.154;16.458;2024-03-02T07:22:44;52.03;;;16.45;;
69310;SDS011;56430;48.154;16.458;2024-03-02T07:25:12;46.53;;;17.17;;
69310;SDS011;56430;48.154;16.458;2024-03-02T07:27:39;48.77;;;16.73;;
69310;SDS011;56430;48.154;16.458;2024-03-02T07:30:08;52.00;;;18.30;;
69310;SDS011;56430;48.154;16.458;2024-03-02T07:32:37;61.33;;;18.33;;
69310;SDS011;56430;48.154;16.458;2024-03-02T07:35:05;109.90;;;21.80;;
69310;SDS011;56430;48.154;16.458;2024-03-02T07:37:33;78.45;;;18.60;;
69310;SDS011;56430;48.154;16.458;2024-03-02T07:40:00;71.17;;;18.53;;
69310;SDS011;56430;48.154;16.458;2024-03-02T07:42:28;87.45;;;19.17;;
69310;SDS011;56430;48.154;16.458;2024-03-02T07:44:55;88.40;;;19.70;;
69310;SDS011;56430;48.154;16.458;2024-03-02T07:47:24;98.03;;;19.05;;
69310;SDS011;56430;48.154;16.458;2024-03-02T07:49:51;87.43;;;20.35;;
69310;SDS011;56430;48.154;16.458;2024-03-02T07:52:18;61.33;;;17.17;;
69310;SDS011;56430;48.154;16.458;2024-03-02T07:54:45;78.32;;;18.02;;
69310;SDS011;56430;48.154;16.458;2024-03-02T07:57:12;70.10;;;18.35;;
69310;SDS011;56430;48.154;16.458;2024-03-02T07:59:39;38.30;;;14.95;;
69310;SDS011;56430;48.154;16.458;2024-03-02T08:02:06;89.65;;;16.85;;
69310;SDS011;56430;48.154;16.458;2024-03-02T08:04:35;32.80;;;13.93;;
69310;SDS011;56430;48.154;16.458;2024-03-02T08:07:02;35.47;;;13.23;;
69310;SDS011;56430;48.154;16.458;2024-03-02T08:09:29;35.55;;;14.02;;
69310;SDS011;56430;48.154;16.458;2024-03-02T08:11:57;30.83;;;13.85;;
69310;SDS011;56430;48.154;16.458;2024-03-02T08:14:24;32.95;;;13.02;;
69310;SDS011;56430;48.154;16.458;2024-03-02T08:16:51;41.87;;;13.73;;
69310;SDS011;56430;48.154;16.458;2024-03-02T08:19:18;35.95;;;14.10;;
69310;SDS011;56430;48.154;16.458;2024-03-02T08:21:47;30.95;;;13.27;;
69310;SDS011;56430;48.154;16.458;2024-03-02T08:24:14;43.00;;;14.77;;
69310;SDS011;56430;48.154;16.458;2024-03-02T08:26:41;40.03;;;13.65;;
69310;SDS011;56430;48.154;16.458;2024-03-02T08:29:08;31.03;;;11.60;;
69310;SDS011;56430;48.154;16.458;2024-03-02T08:31:35;41.60;;;12.77;;
69310;SDS011;56430;48.154;16.458;2024-03-02T08:34:02;42.30;;;13.48;;
69310;SDS011;56430;48.154;16.458;2024-03-02T08:36:29;39.17;;;13.57;;
69310;SDS011;56430;48.154;16.458;2024-03-02T08:38:58;50.80;;;14.13;;
69310;SDS011;56430;48.154;16.458;2024-03-02T08:41:25;54.57;;;14.97;;
69310;SDS011;56430;48.154;16.458;2024-03-02T08:43:52;67.88;;;16.08;;
69310;SDS011;56430;48.154;16.458;2024-03-02T08:46:19;61.92;;;16.05;;
69310;SDS011;56430;48.154;16.458;2024-03-02T08:48:47;48.45;;;14.38;;
69310;SDS011;56430;48.154;16.458;2024-03-02T08:51:14;32.05;;;12.35;;
69310;SDS011;56430;48.154;16.458;2024-03-02T08:53:41;35.10;;;12.80;;
69310;SDS011;56430;48.154;16.458;2024-03-02T08:56:10;36.78;;;12.63;;
69310;SDS011;56430;48.154;16.458;2024-03-02T08:58:38;26.83;;;11.85;;
69310;SDS011;56430;48.154;16.458;2024-03-02T09:01:05;27.52;;;11.82;;
69310;SDS011;56430;48.154;16.458;2024-03-02T09:03:33;36.78;;;12.05;;
69310;SDS011;56430;48.154;16.458;2024-03-02T09:06:01;82.67;;;16.37;;
69310;SDS011;56430;48.154;16.458;2024-03-02T09:08:28;52.47;;;13.93;;
69310;SDS011;56430;48.154;16.458;2024-03-02T09:10:55;63.47;;;15.55;;
69310;SDS011;56430;48.154;16.458;2024-03-02T09:13:24;66.80;;;16.35;;
69310;SDS011;56430;48.154;16.458;2024-03-02T09:15:51;41.20;;;14.35;;
69310;SDS011;56430;48.154;16.458;2024-03-02T09:18:18;32.40;;;13.90;;
69310;SDS011;56430;48.154;16.458;2024-03-02T09:20:45;38.72;;;13.40;;
69310;SDS011;56430;48.154;16.458;2024-03-02T09:23:12;42.10;;;14.05;;
69310;SDS011;56430;48.154;16.458;2024-03-02T09:25:40;31.05;;;12.50;;
69310;SDS011;56430;48.154;16.458;2024-03-02T09:28:07;35.35;;;13.15;;
69310;SDS011;56430;48.154;16.458;2024-03-02T09:30:35;33.97;;;13.50;;
69310;SDS011;56430;48.154;16.458;2024-03-02T09:33:03;41.63;;;13.82;;
69310;SDS011;56430;48.154;16.458;2024-03-02T09:35:30;40.63;;;15.18;;
69310;SDS011;56430;48.154;16.458;2024-03-02T09:37:57;35.58;;;14.88;;
69310;SDS011;56430;48.154;16.458;2024-03-02T09:40:24;63.13;;;17.70;;
69310;SDS011;56430;48.154;16.458;2024-03-02T09:42:52;36.73;;;14.10;;
69310;SDS011;56430;48.154;16.458;2024-03-02T09:45:20;52.60;;;15.18;;
69310;SDS011;56430;48.154;16.458;2024-03-02T09:47:51;32.50;;;13.77;;
69310;SDS011;56430;48.154;16.458;2024-03-02T09:50:18;31.75;;;14.65;;
69310;SDS011;56430;48.154;16.458;2024-03-02T09:52:47;39.83;;;15.65;;
69310;SDS011;56430;48.154;16.458;2024-03-02T09:55:15;32.90;;;14.13;;
69310;SDS011;56430;48.154;16.458;2024-03-02T09:57:42;46.38;;;15.75;;
69310;SDS011;56430;48.154;16.458;2024-03-02T10:00:10;120.70;;;22.45;;
69310;SDS011;56430;48.154;16.458;2024-03-02T10:02:40;58.50;;;17.13;;
69310;SDS011;56430;48.154;16.458;2024-03-02T10:05:09;35.92;;;15.05;;
69310;SDS011;56430;48.154;16.458;2024-03-02T10:07:37;29.57;;;14.87;;
69310;SDS011;56430;48.154;16.458;2024-03-02T10:10:13;29.63;;;15.18;;
69310;SDS011;56430;48.154;16.458;2024-03-02T10:12:41;33.20;;;15.23;;
69310;SDS011;56430;48.154;16.458;2024-03-02T10:15:08;48.88;;;15.95;;
69310;SDS011;56430;48.154;16.458;2024-03-02T10:17:36;34.35;;;15.23;;
69310;SDS011;56430;48.154;16.458;2024-03-02T10:20:23;33.97;;;15.30;;
69310;SDS011;56430;48.154;16.458;2024-03-02T10:22:51;31.15;;;15.15;;
69310;SDS011;56430;48.154;16.458;2024-03-02T10:25:31;29.70;;;15.90;;
69310;SDS011;56430;48.154;16.458;2024-03-02T10:27:58;35.30;;;16.52;;
69310;SDS011;56430;48.154;16.458;2024-03-02T10:30:26;36.55;;;17.30;;
69310;SDS011;56430;48.154;16.458;2024-03-02T10:32:53;38.33;;;18.20;;
69310;SDS011;56430;48.154;16.458;2024-03-02T10:35:23;37.65;;;18.52;;
69310;SDS011;56430;48.154;16.458;2024-03-02T10:37:51;37.83;;;18.92;;
69310;SDS011;56430;48.154;16.458;2024-03-02T10:40:21;34.63;;;17.92;;
69310;SDS011;56430;48.154;16.458;2024-03-02T10:42:48;36.80;;;18.10;;
69310;SDS011;56430;48.154;16.458;2024-03-02T10:45:16;39.50;;;16.90;;
69310;SDS011;56430;48.154;16.458;2024-03-02T10:47:44;40.90;;;19.63;;
69310;SDS011;56430;48.154;16.458;2024-03-02T10:50:13;35.80;;;17.35;;
69310;SDS011;56430;48.154;16.458;2024-03-02T10:52:42;35.25;;;17.30;;
69310;SDS011;56430;48.154;16.458;2024-03-02T10:55:09;36.38;;;16.83;;
69310;SDS011;56430;48.154;16.458;2024-03-02T10:57:41;39.63;;;17.00;;
69310;SDS011;56430;48.154;16.458;2024-03-02T11:00:11;35.78;;;17.42;;
69310;SDS011;56430;48.154;16.458;2024-03-02T11:02:41;38.80;;;18.00;;
69310;SDS011;56430;48.154;16.458;2024-03-02T11:05:09;42.55;;;20.02;;
69310;SDS011;56430;48.154;16.458;2024-03-02T11:07:37;38.63;;;17.77;;
69310;SDS011;56430;48.154;16.458;2024-03-02T11:10:07;42.67;;;19.10;;
69310;SDS011;56430;48.154;16.458;2024-03-02T11:12:36;41.20;;;18.50;;
69310;SDS011;56430;48.154;16.458;2024-03-02T11:15:07;39.40;;;17.55;;
69310;SDS011;56430;48.154;16.458;2024-03-02T11:17:37;47.75;;;20.08;;
69310;SDS011;56430;48.154;16.458;2024-03-02T11:20:06;43.17;;;19.85;;
69310;SDS011;56430;48.154;16.458;2024-03-02T11:22:34;44.33;;;21.27;;
69310;SDS011;56430;48.154;16.458;2024-03-02T11:25:02;45.97;;;19.98;;
69310;SDS011;56430;48.154;16.458;2024-03-02T11:33:24;39.67;;;19.63;;
69310;SDS011;56430;48.154;16.458;2024-03-02T11:35:53;41.97;;;19.30;;
69310;SDS011;56430;48.154;16.458;2024-03-02T11:38:20;46.90;;;20.75;;
69310;SDS011;56430;48.154;16.458;2024-03-02T11:40:47;44.72;;;19.50;;
69310;SDS011;56430;48.154;16.458;2024-03-02T11:43:16;44.33;;;20.27;;
69310;SDS011;56430;48.154;16.458;2024-03-02T11:45:43;47.95;;;21.92;;
69310;SDS011;56430;48.154;16.458;2024-03-02T11:48:11;44.57;;;21.73;;
69310;SDS011;56430;48.154;16.458;2024-03-02T11:50:40;44.30;;;20.77;;
69310;SDS011;56430;48.154;16.458;2024-03-02T11:53:09;46.72;;;21.70;;
69310;SDS011;56430;48.154;16.458;2024-03-02T11:55:38;50.45;;;22.33;;
69310;SDS011;56430;48.154;16.458;2024-03-02T11:58:07;45.67;;;19.17;;
69310;SDS011;56430;48.154;16.458;2024-03-02T12:00:35;48.70;;;24.50;;
69310;SDS011;56430;48.154;16.458;2024-03-02T12:03:04;49.40;;;21.88;;
69310;SDS011;56430;48.154;16.458;2024-03-02T12:05:33;44.50;;;21.33;;
69310;SDS011;56430;48.154;16.458;2024-03-02T12:08:02;41.33;;;19.23;;
69310;SDS011;56430;48.154;16.458;2024-03-02T12:10:30;43.25;;;20.38;;
69310;SDS011;56430;48.154;16.458;2024-03-02T12:12:58;45.67;;;20.63;;
69310;SDS011;56430;48.154;16.458;2024-03-02T12:15:25;41.80;;;20.08;;
69310;SDS011;56430;48.154;16.458;2024-03-02T12:17:55;41.65;;;19.35;;
69310;SDS011;56430;48.154;16.458;2024-03-02T12:20:22;40.50;;;18.98;;
69310;SDS011;56430;48.154;16.458;2024-03-02T12:22:50;39.28;;;17.15;;
69310;SDS011;56430;48.154;16.458;2024-03-02T12:25:19;36.87;;;16.67;;
69310;SDS011;56430;48.154;16.458;2024-03-02T12:27:46;40.17;;;17.52;;
69310;SDS011;56430;48.154;16.458;2024-03-02T12:30:13;30.77;;;14.27;;
69310;SDS011;56430;48.154;16.458;2024-03-02T12:32:41;42.63;;;19.42;;
69310;SDS011;56430;48.154;16.458;2024-03-02T12:35:09;37.30;;;18.10;;
69310;SDS011;56430;48.154;16.458;2024-03-02T12:37:43;41.30;;;19.57;;
69310;SDS011;56430;48.154;16.458;2024-03-02T12:40:11;36.47;;;18.05;;
69310;SDS011;56430;48.154;16.458;2024-03-02T12:42:39;33.75;;;16.60;;
69310;SDS011;56430;48.154;16.458;2024-03-02T12:45:07;37.58;;;18.48;;
69310;SDS011;56430;48.154;16.458;2024-03-02T12:47:35;42.88;;;19.35;;
69310;SDS011;56430;48.154;16.458;2024-03-02T12:50:03;37.20;;;18.10;;
69310;SDS011;56430;48.154;16.458;2024-03-02T12:52:32;33.90;;;16.98;;
69310;SDS011;56430;48.154;16.458;2024-03-02T12:54:59;32.85;;;16.83;;
69310;SDS011;56430;48.154;16.458;2024-03-02T12:57:28;36.33;;;16.58;;
69310;SDS011;56430;48.154;16.458;2024-03-02T12:59:59;37.45;;;17.15;;
69310;SDS011;56430;48.154;16.458;2024-03-02T13:02:29;34.57;;;16.60;;
69310;SDS011;56430;48.154;16.458;2024-03-02T13:04:57;31.80;;;15.35;;
69310;SDS011;56430;48.154;16.458;2024-03-02T13:07:25;35.78;;;17.00;;
69310;SDS011;56430;48.154;16.458;2024-03-02T13:09:54;36.78;;;18.80;;
69310;SDS011;56430;48.154;16.458;2024-03-02T13:12:22;30.75;;;16.05;;
69310;SDS011;56430;48.154;16.458;2024-03-02T13:14:49;35.10;;;17.03;;
69310;SDS011;56430;48.154;16.458;2024-03-02T13:17:18;32.47;;;14.98;;
69310;SDS011;56430;48.154;16.458;2024-03-02T13:19:52;34.30;;;17.52;;
69310;SDS011;56430;48.154;16.458;2024-03-02T13:22:19;33.25;;;16.33;;
69310;SDS011;56430;48.154;16.458;2024-03-02T13:24:47;31.73;;;15.10;;
69310;SDS011;56430;48.154;16.458;2024-03-02T13:27:16;34.33;;;16.33;;
69310;SDS011;56430;48.154;16.458;2024-03-02T13:29:45;32.85;;;16.02;;
69310;SDS011;56430;48.154;16.458;2024-03-02T13:32:13;34.60;;;16.13;;
69310;SDS011;56430;48.154;16.458;2024-03-02T13:34:40;30.95;;;15.27;;
69310;SDS011;56430;48.154;16.458;2024-03-02T13:37:07;32.95;;;16.25;;
69310;SDS011;56430;48.154;16.458;2024-03-02T13:39:34;34.27;;;15.57;;
69310;SDS011;56430;48.154;16.458;2024-03-02T13:42:06;30.48;;;16.00;;
69310;SDS011;56430;48.154;16.458;2024-03-02T13:44:35;33.83;;;16.50;;
69310;SDS011;56430;48.154;16.458;2024-03-02T13:47:03;30.70;;;15.60;;
69310;SDS011;56430;48.154;16.458;2024-03-02T13:49:30;32.80;;;16.38;;
69310;SDS011;56430;48.154;16.458;2024-03-02T13:52:02;34.83;;;17.10;;
69310;SDS011;56430;48.154;16.458;2024-03-02T13:54:38;34.30;;;18.63;;
69310;SDS011;56430;48.154;16.458;2024-03-02T13:57:06;36.58;;;17.15;;
69310;SDS011;56430;48.154;16.458;2024-03-02T13:59:34;33.38;;;17.88;;
69310;SDS011;56430;48.154;16.458;2024-03-02T14:02:02;31.35;;;15.73;;
69310;SDS011;56430;48.154;16.458;2024-03-02T14:04:30;52.20;;;32.43;;
69310;SDS011;56430;48.154;16.458;2024-03-02T14:06:58;39.33;;;18.27;;
69310;SDS011;56430;48.154;16.458;2024-03-02T14:09:26;40.10;;;17.67;;
69310;SDS011;56430;48.154;16.458;2024-03-02T14:11:53;34.72;;;16.83;;
69310;SDS011;56430;48.154;16.458;2024-03-02T14:14:21;35.67;;;17.65;;
69310;SDS011;56430;48.154;16.458;2024-03-02T14:16:49;34.23;;;17.40;;
69310;SDS011;56430;48.154;16.458;2024-03-02T14:19:17;34.00;;;16.73;;
69310;SDS011;56430;48.154;16.458;2024-03-02T14:21:44;34.45;;;18.02;;